sensor_id;sensor_type;location;lat;lon;timestamp;pressure;altitude;pressure_sealevel;temperature;humidity
18504;BME280;9381;54.244;10.074;2024-02-14T00:04:58;101007.84;;;8.55;100.00
18504;BME280;9381;54.244;10.074;2024-02-14T00:09:59;101008.69;;;8.55;100.00
18504;BME280;9381;54.244;10.074;2024-02-14T00:14:59;101011.53;;;8.47;100.00
18504;BME280;9381;54.244;10.074;2024-02-14T00:20:03;100994.47;;;8.40;100.00
18504;BME280;9381;54.244;10.074;2024-02-14T00:25:04;101001.91;;;8.38;100.00
18504;BME280;9381;54.244;10.074;2024-02-14T00:30:05;101004.22;;;8.41;100.00
18504;BME280;9381;54.244;10.074;2024-02-14T00:35:06;100994.53;;;8.53;100.00
18504;BME280;9381;54.244;10.074;2024-02-14T00:40:07;100999.56;;;8.56;100.00
18504;BME280;9381;54.244;10.074;2024-02-14T00:45:08;100982.50;;;8.49;100.00
18504;BME280;9381;54.244;10.074;2024-02-14T00:50:11;100975.31;;;8.56;100.00
18504;BME280;9381;54.244;10.074;2024-02-14T00:55:13;100976.09;;;8.50;100.00
18504;BME280;9381;54.244;10.074;2024-02-14T01:00:14;100975.63;;;8.47;100.00
18504;BME280;9381;54.244;10.074;2024-02-14T01:05:17;100973.34;;;8.44;100.00
18504;BME280;9381;54.244;10.074;2024-02-14T01:10:17;100976.19;;;8.36;100.00
18504;BME280;9381;54.244;10.074;2024-02-14T01:15:18;100979.19;;;8.47;100.00
18504;BME280;9381;54.244;10.074;2024-02-14T01:20:20;100977.25;;;8.41;100.00
18504;BME280;9381;54.244;10.074;2024-02-14T01:25:20;100969.94;;;8.35;100.00
18504;BME280;9381;54.244;10.074;2024-02-14T01:30:21;100968.28;;;8.34;100.00
18504;BME280;9381;54.244;10.074;2024-02-14T01:35:21;100954.44;;;8.16;100.00
18504;BME280;9381;54.244;10.074;2024-02-14T01:40:23;100952.56;;;8.38;100.00
18504;BME280;9381;54.244;10.074;2024-02-14T01:45:23;100952.66;;;8.23;100.00
18504;BME280;9381;54.244;10.074;2024-02-14T01:50:23;100933.91;;;8.36;100.00
18504;BME280;9381;54.244;10.074;2024-02-14T01:55:29;100927.22;;;8.32;100.00
18504;BME280;9381;54.244;10.074;2024-02-14T02:00:30;100924.75;;;8.31;100.00
18504;BME280;9381;54.244;10.074;2024-02-14T02:05:31;100930.97;;;8.31;100.00
18504;BME280;9381;54.244;10.074;2024-02-14T02:10:32;100912.72;;;8.33;100.00
18504;BME280;9381;54.244;10.074;2024-02-14T02:15:33;100912.94;;;8.32;100.00
18504;BME280;9381;54.244;10.074;2024-02-14T02:20:33;100908.44;;;8.18;100.00
18504;BME280;9381;54.244;10.074;2024-02-14T02:25:33;100902.38;;;8.37;100.00
18504;BME280;9381;54.244;10.074;2024-02-14T02:30:37;100898.63;;;8.31;100.00
18504;BME280;9381;54.244;10.074;2024-02-14T02:35:41;100899.88;;;8.35;100.00
18504;BME280;9381;54.244;10.074;2024-02-14T02:40:42;100880.38;;;8.33;100.00
18504;BME280;9381;54.244;10.074;2024-02-14T02:45:43;100893.00;;;8.26;100.00
18504;BME280;9381;54.244;10.074;2024-02-14T02:50:44;100881.84;;;8.29;100.00
18504;BME280;9381;54.244;10.074;2024-02-14T02:55:45;100884.13;;;8.32;100.00
18504;BME280;9381;54.244;10.074;2024-02-14T03:00:45;100885.94;;;8.25;100.00
18504;BME280;9381;54.244;10.074;2024-02-14T03:05:47;100874.22;;;8.39;100.00
18504;BME280;9381;54.244;10.074;2024-02-14T03:10:47;100871.28;;;8.34;100.00
18504;BME280;9381;54.244;10.074;2024-02-14T03:15:48;100863.19;;;8.34;100.00
18504;BME280;9381;54.244;10.074;2024-02-14T03:20:48;100862.38;;;8.34;100.00
18504;BME280;9381;54.244;10.074;2024-02-14T03:25:50;100864.19;;;8.27;100.00
18504;BME280;9381;54.244;10.074;2024-02-14T03:30:51;100857.16;;;8.32;100.00
18504;BME280;9381;54.244;10.074;2024-02-14T03:35:52;100852.41;;;8.34;100.00
18504;BME280;9381;54.244;10.074;2024-02-14T03:40:53;100847.63;;;8.30;100.00
18504;BME280;9381;54.244;10.074;2024-02-14T03:45:54;100842.19;;;8.23;100.00
18504;BME280;9381;54.244;10.074;2024-02-14T03:50:54;100851.31;;;8.22;100.00
18504;BME280;9381;54.244;10.074;2024-02-14T03:55:55;100845.28;;;8.20;100.00
18504;BME280;9381;54.244;10.074;2024-02-14T04:00:55;100850.81;;;8.12;100.00
18504;BME280;9381;54.244;10.074;2024-02-14T04:05:56;100838.78;;;8.08;100.00
18504;BME280;9381;54.244;10.074;2024-02-14T04:10:56;100835.75;;;7.90;100.00
18504;BME280;9381;54.244;10.074;2024-02-14T04:15:56;100840.66;;;8.14;100.00
18504;BME280;9381;54.244;10.074;2024-02-14T04:20:57;100835.06;;;8.09;100.00
18504;BME280;9381;54.244;10.074;2024-02-14T04:25:57;100834.06;;;8.17;100.00
18504;BME280;9381;54.244;10.074;2024-02-14T04:30:57;100834.22;;;8.15;100.00
18504;BME280;9381;54.244;10.074;2024-02-14T04:35:58;100830.50;;;8.16;100.00
18504;BME280;9381;54.244;10.074;2024-02-14T04:40:58;100834.63;;;8.12;100.00
18504;BME280;9381;54.244;10.074;2024-02-14T04:45:59;100828.09;;;8.21;100.00
18504;BME280;9381;54.244;10.074;2024-02-14T04:50:59;100830.88;;;8.07;100.00
18504;BME280;9381;54.244;10.074;2024-02-14T04:56:00;100822.91;;;8.20;100.00
18504;BME280;9381;54.244;10.074;2024-02-14T05:01:00;100816.09;;;8.24;100.00
18504;BME280;9381;54.244;10.074;2024-02-14T05:06:02;100817.69;;;8.18;100.00
18504;BME280;9381;54.244;10.074;2024-02-14T05:11:02;100819.91;;;8.08;100.00
18504;BME280;9381;54.244;10.074;2024-02-14T05:16:04;100823.47;;;8.15;100.00
18504;BME280;9381;54.244;10.074;2024-02-14T05:21:06;100809.88;;;8.23;100.00
18504;BME280;9381;54.244;10.074;2024-02-14T05:26:07;100802.56;;;8.17;100.00
18504;BME280;9381;54.244;10.074;2024-02-14T05:31:08;100793.97;;;8.07;100.00
18504;BME280;9381;54.244;10.074;2024-02-14T05:36:08;100783.47;;;8.12;100.00
18504;BME280;9381;54.244;10.074;2024-02-14T05:41:09;100789.44;;;8.08;100.00
18504;BME280;9381;54.244;10.074;2024-02-14T05:46:10;100779.09;;;8.11;100.00
18504;BME280;9381;54.244;10.074;2024-02-14T05:51:11;100786.78;;;8.14;100.00
18504;BME280;9381;54.244;10.074;2024-02-14T05:56:11;100774.28;;;8.00;100.00
18504;BME280;9381;54.244;10.074;2024-02-14T06:01:11;100762.53;;;8.14;100.00
18504;BME280;9381;54.244;10.074;2024-02-14T06:06:12;100772.06;;;8.10;100.00
18504;BME280;9381;54.244;10.074;2024-02-14T06:11:12;100768.66;;;7.95;100.00
18504;BME280;9381;54.244;10.074;2024-02-14T06:16:14;100761.66;;;8.07;100.00
18504;BME280;9381;54.244;10.074;2024-02-14T06:21:14;100765.16;;;7.95;100.00
18504;BME280;9381;54.244;10.074;2024-02-14T06:26:14;100767.34;;;7.85;100.00
18504;BME280;9381;54.244;10.074;2024-02-14T06:31:15;100770.72;;;7.93;100.00
18504;BME280;9381;54.244;10.074;2024-02-14T06:36:15;100769.06;;;7.92;100.00
18504;BME280;9381;54.244;10.074;2024-02-14T06:41:16;100766.13;;;7.87;100.00
18504;BME280;9381;54.244;10.074;2024-02-14T06:46:16;100772.41;;;8.01;100.00
18504;BME280;9381;54.244;10.074;2024-02-14T06:51:16;100768.25;;;7.98;100.00
18504;BME280;9381;54.244;10.074;2024-02-14T06:56:17;100762.34;;;7.82;100.00
18504;BME280;9381;54.244;10.074;2024-02-14T07:01:17;100764.28;;;7.88;100.00
18504;BME280;9381;54.244;10.074;2024-02-14T07:06:21;100762.38;;;7.88;100.00
18504;BME280;9381;54.244;10.074;2024-02-14T07:11:23;100765.31;;;7.87;100.00
18504;BME280;9381;54.244;10.074;2024-02-14T07:16:24;100759.16;;;7.99;100.00
18504;BME280;9381;54.244;10.074;2024-02-14T07:21:24;100761.59;;;7.94;100.00
18504;BME280;9381;54.244;10.074;2024-02-14T07:26:25;100759.56;;;8.03;100.00
18504;BME280;9381;54.244;10.074;2024-02-14T07:31:28;100760.00;;;8.06;100.00
18504;BME280;9381;54.244;10.074;2024-02-14T07:36:29;100761.19;;;7.97;100.00
18504;BME280;9381;54.244;10.074;2024-02-14T07:41:30;100745.47;;;8.01;100.00
18504;BME280;9381;54.244;10.074;2024-02-14T07:46:31;100744.19;;;7.90;100.00
18504;BME280;9381;54.244;10.074;2024-02-14T07:51:31;100746.16;;;8.09;100.00
18504;BME280;9381;54.244;10.074;2024-02-14T07:56:36;100748.13;;;8.22;100.00
18504;BME280;9381;54.244;10.074;2024-02-14T08:01:37;100743.28;;;8.17;100.00
18504;BME280;9381;54.244;10.074;2024-02-14T08:06:37;100749.69;;;8.16;100.00
18504;BME280;9381;54.244;10.074;2024-02-14T08:11:37;100749.38;;;8.26;100.00
18504;BME280;9381;54.244;10.074;2024-02-14T08:16:38;100755.97;;;8.23;100.00
18504;BME280;9381;54.244;10.074;2024-02-14T08:21:38;100749.78;;;8.29;100.00
18504;BME280;9381;54.244;10.074;2024-02-14T08:26:39;100755.63;;;8.33;100.00
18504;BME280;9381;54.244;10.074;2024-02-14T08:31:39;100741.38;;;8.45;100.00
18504;BME280;9381;54.244;10.074;2024-02-14T08:36:39;100742.78;;;8.41;100.00
18504;BME280;9381;54.244;10.074;2024-02-14T08:41:43;100750.50;;;8.57;100.00
18504;BME280;9381;54.244;10.074;2024-02-14T08:46:45;100761.31;;;8.70;100.00
18504;BME280;9381;54.244;10.074;2024-02-14T08:51:48;100765.66;;;8.58;100.00
18504;BME280;9381;54.244;10.074;2024-02-14T08:56:48;100754.06;;;8.70;100.00
18504;BME280;9381;54.244;10.074;2024-02-14T09:01:49;100756.75;;;8.64;100.00
18504;BME280;9381;54.244;10.074;2024-02-14T09:06:49;100761.97;;;8.72;100.00
18504;BME280;9381;54.244;10.074;2024-02-14T09:11:49;100759.41;;;8.51;100.00
18504;BME280;9381;54.244;10.074;2024-02-14T09:16:50;100752.00;;;8.79;100.00
18504;BME280;9381;54.244;10.074;2024-02-14T09:21:51;100757.22;;;8.80;100.00
18504;BME280;9381;54.244;10.074;2024-02-14T09:26:52;100743.34;;;8.96;100.00
18504;BME280;9381;54.244;10.074;2024-02-14T09:31:53;100747.91;;;9.09;100.00
18504;BME280;9381;54.244;10.074;2024-02-14T09:36:53;100747.06;;;9.15;100.00
18504;BME280;9381;54.244;10.074;2024-02-14T09:41:58;100746.69;;;9.18;100.00
18504;BME280;9381;54.244;10.074;2024-02-14T09:47:03;100750.00;;;9.26;100.00
18504;BME280;9381;54.244;10.074;2024-02-14T09:52:06;100747.06;;;9.21;100.00
18504;BME280;9381;54.244;10.074;2024-02-14T09:57:06;100743.34;;;9.35;100.00
18504;BME280;9381;54.244;10.074;2024-02-14T10:02:07;100744.81;;;9.38;100.00
18504;BME280;9381;54.244;10.074;2024-02-14T10:07:07;100746.03;;;9.42;100.00
18504;BME280;9381;54.244;10.074;2024-02-14T10:12:09;100750.81;;;9.46;100.00
18504;BME280;9381;54.244;10.074;2024-02-14T10:17:17;100765.78;;;9.42;100.00
18504;BME280;9381;54.244;10.074;2024-02-14T10:22:18;100764.53;;;9.58;100.00
18504;BME280;9381;54.244;10.074;2024-02-14T10:27:20;100762.00;;;9.63;100.00
18504;BME280;9381;54.244;10.074;2024-02-14T10:32:22;100761.38;;;9.67;100.00
18504;BME280;9381;54.244;10.074;2024-02-14T10:37:24;100771.34;;;9.80;100.00
18504;BME280;9381;54.244;10.074;2024-02-14T10:42:24;100770.09;;;9.82;100.00
18504;BME280;9381;54.244;10.074;2024-02-14T10:47:30;100770.50;;;9.86;100.00
18504;BME280;9381;54.244;10.074;2024-02-14T10:52:34;100771.97;;;9.88;100.00
18504;BME280;9381;54.244;10.074;2024-02-14T10:57:35;100776.50;;;10.01;100.00
18504;BME280;9381;54.244;10.074;2024-02-14T11:02:36;100768.84;;;10.04;100.00
18504;BME280;9381;54.244;10.074;2024-02-14T11:07:37;100770.91;;;10.02;100.00
18504;BME280;9381;54.244;10.074;2024-02-14T11:12:38;100764.03;;;10.13;100.00
18504;BME280;9381;54.244;10.074;2024-02-14T11:17:40;100766.72;;;10.13;100.00
18504;BME280;9381;54.244;10.074;2024-02-14T11:22:50;100760.63;;;10.37;100.00
18504;BME280;9381;54.244;10.074;2024-02-14T11:27:52;100753.97;;;10.33;100.00
18504;BME280;9381;54.244;10.074;2024-02-14T11:32:52;100756.34;;;10.54;100.00
18504;BME280;9381;54.244;10.074;2024-02-14T11:37:53;100753.16;;;10.26;100.00
18504;BME280;9381;54.244;10.074;2024-02-14T11:42:54;100758.88;;;10.49;100.00
18504;BME280;9381;54.244;10.074;2024-02-14T11:47:54;100755.50;;;10.60;100.00
18504;BME280;9381;54.244;10.074;2024-02-14T11:52:55;100767.03;;;10.80;100.00
18504;BME280;9381;54.244;10.074;2024-02-14T11:57:55;100765.47;;;10.66;100.00
18504;BME280;9381;54.244;10.074;2024-02-14T12:02:56;100768.44;;;10.89;100.00
18504;BME280;9381;54.244;10.074;2024-02-14T12:07:57;100761.56;;;10.93;100.00
18504;BME280;9381;54.244;10.074;2024-02-14T12:12:58;100755.19;;;11.12;100.00
18504;BME280;9381;54.244;10.074;2024-02-14T12:17:59;100765.75;;;11.20;100.00
18504;BME280;9381;54.244;10.074;2024-02-14T12:23:00;100758.44;;;11.20;100.00
18504;BME280;9381;54.244;10.074;2024-02-14T12:28:00;100756.84;;;11.37;100.00
18504;BME280;9381;54.244;10.074;2024-02-14T12:33:01;100750.31;;;11.45;100.00
18504;BME280;9381;54.244;10.074;2024-02-14T12:38:08;100748.13;;;11.60;100.00
18504;BME280;9381;54.244;10.074;2024-02-14T12:43:13;100757.63;;;11.68;100.00
18504;BME280;9381;54.244;10.074;2024-02-14T12:48:22;100746.06;;;11.79;100.00
18504;BME280;9381;54.244;10.074;2024-02-14T12:53:24;100757.19;;;11.71;100.00
18504;BME280;9381;54.244;10.074;2024-02-14T12:58:24;100759.81;;;11.53;100.00
18504;BME280;9381;54.244;10.074;2024-02-14T13:03:25;100772.84;;;11.69;100.00
18504;BME280;9381;54.244;10.074;2024-02-14T13:08:25;100765.59;;;11.63;100.00
18504;BME280;9381;54.244;10.074;2024-02-14T13:13:25;100753.41;;;11.72;100.00
18504;BME280;9381;54.244;10.074;2024-02-14T13:18:26;100766.97;;;11.72;100.00
18504;BME280;9381;54.244;10.074;2024-02-14T13:23:26;100765.31;;;11.71;100.00
18504;BME280;9381;54.244;10.074;2024-02-14T13:28:27;100766.56;;;11.93;100.00
18504;BME280;9381;54.244;10.074;2024-02-14T13:33:27;100771.06;;;11.99;100.00
18504;BME280;9381;54.244;10.074;2024-02-14T13:38:28;100763.78;;;12.18;100.00
18504;BME280;9381;54.244;10.074;2024-02-14T13:43:29;100770.94;;;12.12;100.00
18504;BME280;9381;54.244;10.074;2024-02-14T13:48:29;100762.81;;;12.12;100.00
18504;BME280;9381;54.244;10.074;2024-02-14T13:53:29;100773.19;;;12.15;100.00
18504;BME280;9381;54.244;10.074;2024-02-14T13:58:30;100769.13;;;12.24;100.00
18504;BME280;9381;54.244;10.074;2024-02-14T14:03:30;100778.63;;;12.15;100.00
18504;BME280;9381;54.244;10.074;2024-02-14T14:08:34;100778.72;;;12.27;100.00
18504;BME280;9381;54.244;10.074;2024-02-14T14:13:35;100783.00;;;12.34;100.00
18504;BME280;9381;54.244;10.074;2024-02-14T14:18:36;100788.28;;;12.47;100.00
18504;BME280;9381;54.244;10.074;2024-02-14T14:23:36;100786.75;;;12.51;100.00
18504;BME280;9381;54.244;10.074;2024-02-14T14:28:36;100794.22;;;12.38;100.00
18504;BME280;9381;54.244;10.074;2024-02-14T14:33:37;100797.91;;;12.25;100.00
18504;BME280;9381;54.244;10.074;2024-02-14T14:38:40;100798.59;;;12.39;100.00
18504;BME280;9381;54.244;10.074;2024-02-14T14:43:41;100799.72;;;12.49;100.00
18504;BME280;9381;54.244;10.074;2024-02-14T14:48:41;100802.44;;;12.49;100.00
18504;BME280;9381;54.244;10.074;2024-02-14T14:53:41;100809.50;;;12.32;100.00
18504;BME280;9381;54.244;10.074;2024-02-14T14:58:42;100796.25;;;12.24;100.00
18504;BME280;9381;54.244;10.074;2024-02-14T15:03:43;100803.56;;;12.24;100.00
18504;BME280;9381;54.244;10.074;2024-02-14T15:08:43;100805.97;;;12.32;100.00
18504;BME280;9381;54.244;10.074;2024-02-14T15:13:45;100810.09;;;12.16;100.00
18504;BME280;9381;54.244;10.074;2024-02-14T15:18:45;100811.47;;;12.25;100.00
18504;BME280;9381;54.244;10.074;2024-02-14T15:23:46;100815.41;;;12.29;100.00
18504;BME280;9381;54.244;10.074;2024-02-14T15:28:46;100814.25;;;12.19;100.00
18504;BME280;9381;54.244;10.074;2024-02-14T15:33:55;100816.47;;;12.28;100.00
18504;BME280;9381;54.244;10.074;2024-02-14T15:38:56;100811.25;;;12.27;100.00
18504;BME280;9381;54.244;10.074;2024-02-14T15:43:57;100813.66;;;12.35;100.00
18504;BME280;9381;54.244;10.074;2024-02-14T15:48:57;100819.97;;;12.29;100.00
18504;BME280;9381;54.244;10.074;2024-02-14T15:53:58;100817.19;;;12.35;100.00
18504;BME280;9381;54.244;10.074;2024-02-14T15:58:58;100819.75;;;12.30;100.00
18504;BME280;9381;54.244;10.074;2024-02-14T16:03:58;100815.22;;;12.24;100.00
18504;BME280;9381;54.244;10.074;2024-02-14T16:08:59;100820.13;;;12.16;100.00
18504;BME280;9381;54.244;10.074;2024-02-14T16:13:59;100822.31;;;12.25;100.00
18504;BME280;9381;54.244;10.074;2024-02-14T16:18:59;100819.16;;;12.28;100.00
18504;BME280;9381;54.244;10.074;2024-02-14T16:24:00;100820.06;;;12.22;100.00
18504;BME280;9381;54.244;10.074;2024-02-14T16:29:00;100820.06;;;12.22;100.00
18504;BME280;9381;54.244;10.074;2024-02-14T16:34:01;100817.34;;;12.22;100.00
18504;BME280;9381;54.244;10.074;2024-02-14T16:39:01;100820.66;;;12.24;100.00
18504;BME280;9381;54.244;10.074;2024-02-14T16:44:02;100827.97;;;12.24;100.00
18504;BME280;9381;54.244;10.074;2024-02-14T16:49:02;100823.97;;;12.26;100.00
18504;BME280;9381;54.244;10.074;2024-02-14T16:54:03;100819.84;;;12.24;100.00
18504;BME280;9381;54.244;10.074;2024-02-14T16:59:04;100833.63;;;12.22;100.00
18504;BME280;9381;54.244;10.074;2024-02-14T17:04:04;100825.47;;;12.22;100.00
18504;BME280;9381;54.244;10.074;2024-02-14T17:09:04;100826.28;;;12.23;100.00
18504;BME280;9381;54.244;10.074;2024-02-14T17:14:05;100821.72;;;12.23;100.00
18504;BME280;9381;54.244;10.074;2024-02-14T17:19:09;100823.38;;;12.24;100.00
18504;BME280;9381;54.244;10.074;2024-02-14T17:24:09;100823.81;;;12.21;100.00
18504;BME280;9381;54.244;10.074;2024-02-14T17:29:10;100829.25;;;12.21;100.00
18504;BME280;9381;54.244;10.074;2024-02-14T17:34:10;100830.13;;;12.15;100.00
18504;BME280;9381;54.244;10.074;2024-02-14T17:39:11;100842.63;;;12.16;100.00
18504;BME280;9381;54.244;10.074;2024-02-14T17:44:11;100830.13;;;12.15;100.00
18504;BME280;9381;54.244;10.074;2024-02-14T17:49:12;100843.47;;;12.17;100.00
18504;BME280;9381;54.244;10.074;2024-02-14T17:54:14;100843.94;;;12.14;100.00
18504;BME280;9381;54.244;10.074;2024-02-14T17:59:15;100842.03;;;12.14;100.00
18504;BME280;9381;54.244;10.074;2024-02-14T18:04:15;100837.09;;;12.29;100.00
18504;BME280;9381;54.244;10.074;2024-02-14T18:09:16;100834.97;;;12.31;100.00
18504;BME280;9381;54.244;10.074;2024-02-14T18:14:16;100845.25;;;12.47;100.00
18504;BME280;9381;54.244;10.074;2024-02-14T18:19:17;100843.41;;;12.59;100.00
18504;BME280;9381;54.244;10.074;2024-02-14T18:24:18;100837.09;;;12.65;100.00
18504;BME280;9381;54.244;10.074;2024-02-14T18:29:19;100841.97;;;12.75;100.00
18504;BME280;9381;54.244;10.074;2024-02-14T18:34:19;100834.00;;;12.80;100.00
18504;BME280;9381;54.244;10.074;2024-02-14T18:39:19;100840.88;;;12.64;100.00
18504;BME280;9381;54.244;10.074;2024-02-14T18:44:20;100847.88;;;12.72;100.00
18504;BME280;9381;54.244;10.074;2024-02-14T18:49:20;100843.53;;;12.82;100.00
18504;BME280;9381;54.244;10.074;2024-02-14T18:54:21;100848.84;;;12.77;100.00
18504;BME280;9381;54.244;10.074;2024-02-14T18:59:23;100844.75;;;12.86;100.00
18504;BME280;9381;54.244;10.074;2024-02-14T19:04:23;100843.69;;;12.87;100.00
18504;BME280;9381;54.244;10.074;2024-02-14T19:09:24;100846.19;;;12.89;100.00
18504;BME280;9381;54.244;10.074;2024-02-14T19:14:24;100842.16;;;12.91;100.00
18504;BME280;9381;54.244;10.074;2024-02-14T19:19:25;100830.91;;;12.94;100.00
18504;BME280;9381;54.244;10.074;2024-02-14T19:24:27;100843.53;;;12.82;100.00
18504;BME280;9381;54.244;10.074;2024-02-14T19:29:28;100839.78;;;12.83;100.00
18504;BME280;9381;54.244;10.074;2024-02-14T19:34:28;100844.94;;;12.73;100.00
18504;BME280;9381;54.244;10.074;2024-02-14T19:39:28;100844.59;;;12.81;100.00
18504;BME280;9381;54.244;10.074;2024-02-14T19:44:32;100847.25;;;12.88;100.00
18504;BME280;9381;54.244;10.074;2024-02-14T19:49:32;100846.72;;;12.79;100.00
18504;BME280;9381;54.244;10.074;2024-02-14T19:54:32;100861.94;;;12.80;100.00
18504;BME280;9381;54.244;10.074;2024-02-14T19:59:34;100858.34;;;12.86;100.00
18504;BME280;9381;54.244;10.074;2024-02-14T20:04:35;100862.19;;;12.79;100.00
18504;BME280;9381;54.244;10.074;2024-02-14T20:09:35;100858.16;;;12.81;100.00
18504;BME280;9381;54.244;10.074;2024-02-14T20:14:35;100863.47;;;12.76;100.00
18504;BME280;9381;54.244;10.074;2024-02-14T20:19:35;100862.63;;;12.94;100.00
18504;BME280;9381;54.244;10.074;2024-02-14T20:24:37;100862.53;;;12.82;100.00
18504;BME280;9381;54.244;10.074;2024-02-14T20:29:38;100870.69;;;13.00;100.00
18504;BME280;9381;54.244;10.074;2024-02-14T20:34:38;100870.47;;;13.02;100.00
18504;BME280;9381;54.244;10.074;2024-02-14T20:39:38;100864.56;;;13.05;100.00
18504;BME280;9381;54.244;10.074;2024-02-14T20:44:40;100862.53;;;13.00;100.00
18504;BME280;9381;54.244;10.074;2024-02-14T20:49:40;100864.22;;;13.01;100.00
18504;BME280;9381;54.244;10.074;2024-02-14T20:54:40;100874.34;;;12.94;100.00
18504;BME280;9381;54.244;10.074;2024-02-14T20:59:40;100869.78;;;13.06;100.00
18504;BME280;9381;54.244;10.074;2024-02-14T21:04:41;100873.09;;;13.08;100.00
18504;BME280;9381;54.244;10.074;2024-02-14T21:09:42;100881.22;;;12.97;100.00
18504;BME280;9381;54.244;10.074;2024-02-14T21:14:42;100879.50;;;13.14;100.00
18504;BME280;9381;54.244;10.074;2024-02-14T21:19:43;100881.56;;;13.00;100.00
18504;BME280;9381;54.244;10.074;2024-02-14T21:24:43;100885.19;;;13.12;100.00
18504;BME280;9381;54.244;10.074;2024-02-14T21:29:43;100886.03;;;13.24;100.00
18504;BME280;9381;54.244;10.074;2024-02-14T21:34:44;100877.78;;;13.19;100.00
18504;BME280;9381;54.244;10.074;2024-02-14T21:39:45;100883.81;;;13.21;100.00
18504;BME280;9381;54.244;10.074;2024-02-14T21:44:45;100887.91;;;13.12;100.00
18504;BME280;9381;54.244;10.074;2024-02-14T21:49:45;100890.00;;;13.10;100.00
18504;BME280;9381;54.244;10.074;2024-02-14T21:54:46;100892.72;;;13.10;100.00
18504;BME280;9381;54.244;10.074;2024-02-14T21:59:46;100891.22;;;12.96;100.00
18504;BME280;9381;54.244;10.074;2024-02-14T22:04:46;100877.94;;;13.06;100.00
18504;BME280;9381;54.244;10.074;2024-02-14T22:09:47;100876.75;;;13.02;100.00
18504;BME280;9381;54.244;10.074;2024-02-14T22:14:47;100875.75;;;13.15;100.00
18504;BME280;9381;54.244;10.074;2024-02-14T22:19:47;100868.63;;;13.14;100.00
18504;BME280;9381;54.244;10.074;2024-02-14T22:24:48;100870.22;;;13.21;100.00
18504;BME280;9381;54.244;10.074;2024-02-14T22:29:49;100877.94;;;13.06;100.00
18504;BME280;9381;54.244;10.074;2024-02-14T22:34:49;100878.69;;;13.13;100.00
18504;BME280;9381;54.244;10.074;2024-02-14T22:39:50;100878.50;;;13.26;100.00
18504;BME280;9381;54.244;10.074;2024-02-14T22:44:51;100877.03;;;13.12;100.00
18504;BME280;9381;54.244;10.074;2024-02-14T22:49:51;100880.34;;;13.14;100.00
18504;BME280;9381;54.244;10.074;2024-02-14T22:54:51;100883.13;;;13.26;100.00
18504;BME280;9381;54.244;10.074;2024-02-14T22:59:52;100879.81;;;13.24;100.00
18504;BME280;9381;54.244;10.074;2024-02-14T23:04:53;100884.03;;;13.20;100.00
18504;BME280;9381;54.244;10.074;2024-02-14T23:09:53;100890.28;;;13.20;100.00
18504;BME280;9381;54.244;10.074;2024-02-14T23:14:54;100883.69;;;13.28;100.00
18504;BME280;9381;54.244;10.074;2024-02-14T23:19:54;100888.63;;;13.19;100.00
18504;BME280;9381;54.244;10.074;2024-02-14T23:24:55;100896.25;;;13.11;100.00
18504;BME280;9381;54.244;10.074;2024-02-14T23:29:55;100892.16;;;13.20;100.00
18504;BME280;9381;54.244;10.074;2024-02-14T23:34:55;100886.81;;;13.13;100.00
18504;BME280;9381;54.244;10.074;2024-02-14T23:39:56;100892.03;;;13.15;100.00
18504;BME280;9381;54.244;10.074;2024-02-14T23:44:59;100885.78;;;13.14;100.00
18504;BME280;9381;54.244;10.074;2024-02-14T23:50:01;100884.72;;;13.15;100.00
18504;BME280;9381;54.244;10.074;2024-02-14T23:55:02;100881.09;;;13.21;100.00
